Akiak, AK

9:28 AM AKDT on September 16, 2014 (GMT -0800)
Kwethluk AP, Kwethluk, AK | Change Station
CLOSE
Current Station
Airport
Location: Kwethluk AP, Kwethluk, AK,
Elevation: 26 ft
Nearby Weather Stations

Elev 26 ft 60.79 °N, 161.44 °W | Updated 32 minutes ago

Clear
Clear
44 °F
Feels Like 39 °F
N
9
Wind Variable Wind from SSE

Today
High -- | Low -- °F
--% Chance of Precip.
Yesterday
High -- | Low -- °F
Precip. -- in
8:14 AM 9:02 PM
Last Quarter, 44% visible
Pressure 29.55 in
Visibility 10.0 miles
Clouds Clear
Windchill 39 °F
Dew Point 42 °F
Humidity 93%
Rainfall 0.00 in
Snow Depth 1 in , 0 in , 164 in
UV 0 out of 12
Pollen Not available.
Air Quality Not available.
Flu Activity Not available.
METAR PFKW 161656Z AUTO 15008KT 10SM CLR 07/06 A2954 RMK AO2 SLP004 T00670056 $

More Conditions Fewer Conditions

Pressure 29.55 in
Visibility 10.0 miles
Clouds Clear
Windchill 39 °F
Dew Point 42 °F
Humidity 93%
Rainfall 0.00 in
Snow Depth 1 in , 0 in , 164 in
UV 0 out of 12
Pollen Not available.
Air Quality Not available.
Flu Activity Not available.
METAR PFKW 161656Z AUTO 15008KT 10SM CLR 07/06 A2954 RMK AO2 SLP004 T00670056 $

More Conditions Fewer Conditions

10-Day Weather Forecast

Almanac

Astronomy

Sep. 16, 2014 Rise Set
Actual Time 8:14 AM AKDT 9:02 PM AKDT
Civil Twilight 7:31 AM AKDT 9:45 PM AKDT
Nautical Twilight 6:37 AM AKDT 10:38 PM AKDT
Astronomical Twilight 5:37 AM AKDT 11:38 PM AKDT
Moon 12:20 AM AKDT 5:47 PM AKDT
Length of Visible Light 14h 14m
Length of Day
12h 47m
Tomorrow will be 5m 36s shorter.
Last Quarter, 44% of the Moon is Illuminated
Today
Last Quarter
Sep 24
New
Oct 1
First Quarter
Oct 8
Full
Oct 15
Last Quarter

Today's Extremes

State Highs State Lows

Community

WunderPhotos

Upload Photos

1,753,838 photos uploaded!

Nearby

Snow Depth

Station Depth Elevation
Mcneil Canyon 1 in 1320 ft
Grandview 0 in 1100 ft
Nuka Glacier 164 in 1250 ft
Indian Pass 1 in 2300 ft
Port Graham 0 in 300 ft

Earthquake Activity

City Distance Mag. Time & Date
No recent earthquake activity has been reported nearby.
Minimum magnitude displayed is 2.5.

Coastal Water Temperatures

Place Temperature
No Stations Reporting

Nearby Weather Stations